メインページ
METAR-TAF:

METAR-TAF

空港 :

ドバイ国際空港

ドバイ, アラブ首長国連邦

緯度: 25-15-10N, 経度: 055-21-52E, 海抜: 8m

現時点の気象観測

当レポートは52分前の10:00(UTC)に作成
北/北西の風 14kt
気温 34°C
湿度 44%
気圧 1008 hPa
視程10km以上
1,500メートル以下は雲なし、積乱雲なし

METAR: OMDB 211000Z 33014KT CAVOK 34/20 Q1008 NOSIG

時間: 14:52 (10:52 UTC)

予報

当レポートは5時間52分前の05:00(UTC)に作成
予報は21日の 06時(UTC)から 22日の 12時(UTC)まで有効
の風 5kt
視程10km以上
1,500メートル以下は雲なし、積乱雲なし
21日の 07時(UTC)から 21日の 09時(UTC)まで徐々に
の風 14kt
21日の 16時(UTC)から 21日の 18時(UTC)まで徐々に
の風 5kt
22日の 07時(UTC)から 22日の 09時(UTC)まで徐々に
北西の風 12kt

TAF: OMDB 210500Z 2106/2212 09005KT CAVOK BECMG 2107/2109 35014KT BECMG 2116/2118 09005KT BECMG 2207/2209 32012KT

4,000以上の空港の気象観測と天気予報(METAR報とTAF報)

利用可能な観測所は地図上に黄色い丸と赤い丸で示す。

丸の上にカーソルを重ねると観測所名を参照できる。

次にクリックすると気象観測と天気予報を参照できる。

マップの切り替え:黒色「×」印の緑ボタンをクリックして拡大、「-」印の緑ボタンをクリックして縮小、緑色の三角印をクリックして隣りの地図に切り替え


METAR-TAF: